Time;durP1;ratioP1;P1;durP2;ratioP2;P2;SDS_P1;SDS_P2;PMS_P1;PMS_P2;Temp;Humidity;BMP_temperature;BMP_pressure;BME280_temperature;BME280_humidity;BME280_pressure;Samples;Min_cycle;Max_cycle;Signal;HPM_P1;HPM_P2
2022/10/23 00:00:44;;;;;;;87.97;48.03;;;;;;;10.23;100.00;101292.31;5092657;28;20379;-47
2022/10/23 00:03:09;;;;;;;80.40;44.53;;;;;;;10.35;100.00;101283.41;5093014;28;20357;-48
2022/10/23 00:05:39;;;;;;;80.03;45.90;;;;;;;10.29;100.00;101287.38;5092360;28;20032;-47
2022/10/23 00:08:04;;;;;;;81.50;43.65;;;;;;;10.28;100.00;101285.66;5092542;28;20033;-47
2022/10/23 00:10:30;;;;;;;76.88;45.75;;;;;;;10.33;100.00;101278.97;5092983;28;20020;-46
2022/10/23 00:12:55;;;;;;;87.85;43.50;;;;;;;10.28;100.00;101278.78;5092076;28;20468;-48
2022/10/23 00:15:22;;;;;;;76.82;43.08;;;;;;;10.31;100.00;101276.31;5092695;28;20031;-46
2022/10/23 00:17:48;;;;;;;67.75;40.95;;;;;;;10.28;100.00;101270.19;5092566;28;20032;-46
2022/10/23 00:20:15;;;;;;;74.82;41.20;;;;;;;10.26;100.00;101271.81;5092405;28;20024;-47
2022/10/23 00:22:41;;;;;;;72.95;41.75;;;;;;;10.34;100.00;101271.28;5092771;28;20026;-48
2022/10/23 00:25:08;;;;;;;67.78;40.17;;;;;;;10.30;100.00;101284.00;5092673;28;20099;-44
2022/10/23 00:27:33;;;;;;;70.63;39.95;;;;;;;10.26;100.00;101280.41;5094967;28;20133;-46
2022/10/23 00:29:59;;;;;;;65.70;38.67;;;;;;;10.32;100.00;101279.78;5096372;28;20061;-47
2022/10/23 00:32:25;;;;;;;67.25;37.70;;;;;;;10.36;100.00;101281.69;5096613;28;20419;-47
2022/10/23 00:34:50;;;;;;;68.90;39.20;;;;;;;10.45;100.00;101279.44;5096078;28;20024;-48
2022/10/23 00:37:16;;;;;;;66.18;36.40;;;;;;;10.42;100.00;101273.28;5096321;28;20415;-46
2022/10/23 00:39:41;;;;;;;64.00;35.15;;;;;;;10.36;100.00;101269.66;5096674;28;20020;-45
2022/10/23 00:42:12;;;;;;;57.55;34.58;;;;;;;10.42;100.00;101286.19;5095614;28;20065;-47
2022/10/23 00:44:39;;;;;;;58.35;33.97;;;;;;;10.43;100.00;101275.94;5096247;28;20052;-48
2022/10/23 00:47:05;;;;;;;66.65;32.65;;;;;;;10.40;100.00;101265.50;5095548;28;20104;-47
2022/10/23 00:49:31;;;;;;;57.50;31.52;;;;;;;10.49;100.00;101273.56;5096381;28;20107;-47
2022/10/23 00:52:00;;;;;;;55.15;30.52;;;;;;;10.47;100.00;101261.47;5096012;28;20034;-47
2022/10/23 00:54:30;;;;;;;52.88;29.73;;;;;;;10.48;100.00;101266.69;5095802;28;20151;-46
2022/10/23 00:56:58;;;;;;;56.08;32.42;;;;;;;10.54;100.00;101269.47;5095873;28;20028;-45
2022/10/23 00:59:24;;;;;;;53.97;29.95;;;;;;;10.47;100.00;101277.81;5096263;28;20028;-45
2022/10/23 01:01:50;;;;;;;57.83;30.92;;;;;;;10.47;100.00;101277.81;5095270;28;20059;-47
2022/10/23 01:04:16;;;;;;;49.72;28.27;;;;;;;10.46;100.00;101278.63;5096088;28;20066;-48
2022/10/23 01:06:46;;;;;;;51.50;28.27;;;;;;;10.51;100.00;101271.94;5096009;28;20028;-44
2022/10/23 01:09:21;;;;;;;52.45;30.67;;;;;;;10.57;100.00;101273.00;5095479;28;20028;-46
2022/10/23 01:12:09;;;;;;;54.55;27.63;;;;;;;10.48;100.00;101263.22;5095583;28;20066;-47
2022/10/23 01:14:34;;;;;;;;;;;;;;;10.56;100.00;101269.56;5096616;28;20112;-46
2022/10/23 01:17:07;;;;;;;49.33;26.98;;;;;;;10.47;100.00;101262.34;5095097;28;20025;-47
2022/10/23 01:19:41;;;;;;;48.45;26.98;;;;;;;10.49;100.00;101262.41;5095698;28;20107;-47
2022/10/23 01:22:25;;;;;;;57.13;28.30;;;;;;;10.47;100.00;101253.72;5095676;28;20115;-47
2022/10/23 01:25:01;;;;;;;52.38;26.08;;;;;;;10.40;100.00;101257.78;5095136;28;20028;-48
2022/10/23 01:27:38;;;;;;;46.92;26.40;;;;;;;10.40;100.00;101255.22;5095797;28;20028;-47
2022/10/23 01:30:11;;;;;;;54.63;27.42;;;;;;;10.46;100.00;101260.59;5094974;28;20039;-46
2022/10/23 01:32:57;;;;;;;51.35;26.27;;;;;;;10.39;100.00;101258.59;5095496;28;20042;-48
2022/10/23 01:35:32;;;;;;;48.45;24.33;;;;;;;10.37;100.00;101255.97;5095791;28;20028;-46
2022/10/23 01:38:26;;;;;;;43.28;24.33;;;;;;;10.35;100.00;101252.47;5094025;28;20020;-46
2022/10/23 01:41:06;;;;;;;40.58;23.33;;;;;;;10.31;100.00;101241.97;5095032;28;20085;-48
2022/10/23 01:43:43;;;;;;;56.45;24.55;;;;;;;10.34;100.00;101244.63;5094642;28;20036;-47
2022/10/23 01:46:13;;;;;;;47.70;23.25;;;;;;;10.20;100.00;101242.44;5095321;28;20021;-47
2022/10/23 01:48:44;;;;;;;49.03;24.70;;;;;;;10.15;100.00;101236.22;5095331;28;20038;-48
2022/10/23 01:51:13;;;;;;;42.40;23.48;;;;;;;10.17;100.00;101224.31;5094708;28;20032;-48
2022/10/23 01:53:40;;;;;;;46.22;22.48;;;;;;;10.13;100.00;101219.84;5094948;28;20033;-48
2022/10/23 01:56:11;;;;;;;47.50;24.40;;;;;;;10.10;100.00;101224.88;5094930;28;20089;-44
2022/10/23 01:58:38;;;;;;;49.55;23.85;;;;;;;10.08;100.00;101216.22;5094817;28;20028;-47
2022/10/23 02:01:06;;;;;;;42.10;23.47;;;;;;;10.03;100.00;101220.31;5094758;28;20107;-46
2022/10/23 02:03:34;;;;;;;41.13;22.95;;;;;;;9.94;100.00;101222.53;5095117;28;20012;-47
2022/10/23 02:05:59;;;;;;;51.95;25.27;;;;;;;9.98;100.00;101216.69;5094136;28;20024;-47
2022/10/23 02:08:25;;;;;;;55.40;24.00;;;;;;;9.94;100.00;101220.84;5094493;28;20043;-46
2022/10/23 02:11:10;;;;;;;44.38;22.92;;;;;;;9.93;100.00;101218.19;5094820;28;20027;-47
2022/10/23 02:13:43;;;;;;;41.22;22.00;;;;;;;9.88;100.00;101224.06;5094322;28;20058;-48
2022/10/23 02:16:14;;;;;;;50.30;24.02;;;;;;;9.83;100.00;101220.44;5094434;28;20450;-47
2022/10/23 02:18:53;;;;;;;46.95;23.98;;;;;;;9.86;100.00;101223.13;5094063;28;20024;-47
2022/10/23 02:21:30;;;;;;;43.28;22.35;;;;;;;9.78;100.00;101216.81;5094606;28;20028;-47
2022/10/23 02:24:07;;;;;;;39.60;23.20;;;;;;;9.80;100.00;101220.31;5094402;28;20402;-48
2022/10/23 02:26:38;;;;;;;43.67;23.10;;;;;;;9.80;100.00;101219.44;5094111;28;20029;-45
2022/10/23 02:29:09;;;;;;;44.88;21.98;;;;;;;9.78;100.00;101209.06;5093979;28;20081;-47
2022/10/23 02:31:35;;;;;;;47.38;22.63;;;;;;;9.79;100.00;101204.81;5094405;28;20349;-48
2022/10/23 02:34:00;;;;;;;40.85;23.08;;;;;;;9.80;100.00;101204.88;5093738;28;20024;-48
2022/10/23 02:36:25;;;;;;;46.50;23.30;;;;;;;9.84;100.00;101201.59;5094234;28;20048;-46
2022/10/23 02:38:51;;;;;;;53.03;24.95;;;;;;;9.86;100.00;101201.66;5094144;28;20107;-45
2022/10/23 02:41:25;;;;;;;49.20;24.30;;;;;;;9.84;100.00;101190.44;5093938;28;20420;-47
2022/10/23 02:44:09;;;;;;;43.67;24.35;;;;;;;9.97;100.00;101184.06;5093685;28;20104;-47
2022/10/23 02:46:53;;;;;;;56.13;24.35;;;;;;;10.01;100.00;101176.47;5094417;28;20032;-47
2022/10/23 02:49:33;;;;;;;61.78;25.02;;;;;;;10.12;100.00;101170.84;5093595;28;20110;-45
2022/10/23 02:52:11;;;;;;;52.40;24.92;;;;;;;10.16;100.00;101158.16;5093428;28;20467;-46
2022/10/23 02:54:45;;;;;;;48.53;24.92;;;;;;;10.18;100.00;101148.75;5093737;28;20017;-47
2022/10/23 02:57:29;;;;;;;53.17;25.50;;;;;;;10.27;100.00;101144.78;5094115;28;20061;-47
2022/10/23 03:00:04;;;;;;;53.20;27.20;;;;;;;10.35;100.00;101140.75;5093801;28;20040;-47
2022/10/23 03:02:37;;;;;;;52.00;26.17;;;;;;;10.40;100.00;101141.84;5093236;28;20054;-47
2022/10/23 03:05:05;;;;;;;49.40;27.52;;;;;;;10.44;100.00;101133.38;5093564;28;20370;-47
2022/10/23 03:07:31;;;;;;;53.00;26.02;;;;;;;10.47;100.00;101124.88;5093951;28;20020;-47
2022/10/23 03:09:56;;;;;;;50.75;24.45;;;;;;;10.46;100.00;101126.59;5092825;28;20024;-47
2022/10/23 03:12:21;;;;;;;52.95;25.67;;;;;;;10.50;100.00;101120.72;5093746;28;20050;-47
2022/10/23 03:14:46;;;;;;;54.58;26.58;;;;;;;10.54;100.00;101119.13;5092951;28;20052;-47
2022/10/23 03:17:12;;;;;;;48.45;25.10;;;;;;;10.54;100.00;101119.13;5093387;28;20074;-47
2022/10/23 03:19:37;;;;;;;46.22;25.33;;;;;;;10.56;100.00;101116.59;5093802;28;20020;-47
2022/10/23 03:22:02;;;;;;;52.85;24.70;;;;;;;10.58;100.00;101104.66;5092867;28;20107;-46
2022/10/23 03:24:27;;;;;;;44.60;24.33;;;;;;;10.60;100.00;101102.97;5093399;28;20024;-46
2022/10/23 03:26:53;;;;;;;48.22;24.95;;;;;;;10.58;100.00;101104.66;5093331;28;20106;-48
2022/10/23 03:29:18;;;;;;;62.00;25.27;;;;;;;10.62;100.00;101104.78;5092695;28;20039;-46
2022/10/23 03:31:43;;;;;;;49.10;24.63;;;;;;;10.60;100.00;101097.81;5092837;28;20379;-46
2022/10/23 03:34:10;;;;;;;54.47;24.52;;;;;;;10.61;100.00;101091.84;5093313;28;20054;-45
2022/10/23 03:36:36;;;;;;;48.90;24.73;;;;;;;10.62;100.00;101096.19;5092640;28;20371;-48
2022/10/23 03:39:03;;;;;;;48.83;25.75;;;;;;;10.66;100.00;101098.03;5092876;28;20161;-48
2022/10/23 03:41:28;;;;;;;45.88;24.15;;;;;;;10.63;100.00;101087.63;5093253;28;20067;-45
2022/10/23 03:43:54;;;;;;;62.97;24.88;;;;;;;10.65;100.00;101086.84;5092241;28;20064;-48
2022/10/23 03:46:19;;;;;;;47.58;24.85;;;;;;;10.65;100.00;101091.13;5092979;28;20016;-47
2022/10/23 03:48:44;;;;;;;46.78;24.75;;;;;;;10.63;100.00;101080.75;5092946;28;20036;-48
2022/10/23 03:51:09;;;;;;;52.80;25.42;;;;;;;10.66;100.00;101087.72;5092665;28;20476;-47
2022/10/23 03:53:35;;;;;;;47.75;24.02;;;;;;;10.67;100.00;101084.31;5092942;28;20028;-44
2022/10/23 03:56:00;;;;;;;44.85;23.92;;;;;;;10.68;100.00;101075.78;5092933;28;20422;-48
2022/10/23 03:58:25;;;;;;;47.38;22.90;;;;;;;10.72;100.00;101072.47;5092654;28;20028;-47
2022/10/23 04:00:51;;;;;;;44.95;23.40;;;;;;;10.73;100.00;101076.81;5092017;28;20532;-46
2022/10/23 04:03:16;;;;;;;47.50;24.02;;;;;;;10.74;100.00;101065.63;5093121;28;20028;-48
2022/10/23 04:05:42;;;;;;;48.42;21.60;;;;;;;10.76;100.00;101069.16;5092532;28;20020;-48
2022/10/23 04:08:07;;;;;;;48.75;22.80;;;;;;;10.78;100.00;101058.88;5092498;28;20042;-46
2022/10/23 04:10:32;;;;;;;43.58;21.48;;;;;;;10.79;100.00;101053.78;5092971;28;20028;-47
2022/10/23 04:12:58;;;;;;;45.78;22.58;;;;;;;10.82;100.00;101053.88;5092028;28;20525;-48
2022/10/23 04:15:23;;;;;;;40.45;21.48;;;;;;;10.83;100.00;101049.59;5092617;28;20032;-46
2022/10/23 04:17:48;;;;;;;40.97;20.52;;;;;;;10.82;100.00;101045.25;5092865;28;20479;-47
2022/10/23 04:20:13;;;;;;;42.95;21.08;;;;;;;10.83;100.00;101037.59;5092109;28;20051;-48
2022/10/23 04:22:39;;;;;;;38.25;20.00;;;;;;;10.82;100.00;101038.41;5092920;28;20039;-48
2022/10/23 04:25:04;;;;;;;41.45;20.38;;;;;;;10.84;100.00;101041.03;5092212;28;20028;-43
2022/10/23 04:27:30;;;;;;;41.42;19.55;;;;;;;10.84;100.00;101048.78;5092349;28;20028;-47
2022/10/23 04:29:55;;;;;;;36.58;20.75;;;;;;;10.84;100.00;101047.06;5092480;28;20035;-47
2022/10/23 04:32:20;;;;;;;41.05;20.80;;;;;;;10.83;100.00;101050.50;5092328;28;20532;-46
2022/10/23 04:34:45;;;;;;;39.75;19.60;;;;;;;10.87;100.00;101042.03;5092417;28;20031;-48
2022/10/23 04:37:11;;;;;;;41.45;18.65;;;;;;;10.89;100.00;101036.03;5092853;28;20391;-44
2022/10/23 04:39:36;;;;;;;36.97;18.90;;;;;;;10.91;100.00;101042.09;5092232;28;20032;-45
2022/10/23 04:42:01;;;;;;;40.85;18.70;;;;;;;10.92;100.00;101037.00;5092226;28;20174;-47
2022/10/23 04:44:27;;;;;;;37.28;18.60;;;;;;;10.87;100.00;101036.88;5092506;28;20048;-46
2022/10/23 04:46:52;;;;;;;51.83;19.38;;;;;;;10.87;100.00;101042.03;5091713;28;20028;-47
2022/10/23 04:49:17;;;;;;;40.53;18.17;;;;;;;10.86;100.00;101036.81;5092237;28;20356;-47
2022/10/23 04:51:42;;;;;;;37.95;19.25;;;;;;;10.87;100.00;101042.03;5092483;28;20062;-46
2022/10/23 04:54:08;;;;;;;36.90;18.73;;;;;;;10.85;100.00;101043.66;5091958;28;20031;-47
2022/10/23 04:56:34;;;;;;;45.83;18.20;;;;;;;10.86;100.00;101035.09;5092207;28;20050;-46
2022/10/23 04:59:00;;;;;;;42.28;18.25;;;;;;;10.89;100.00;101030.88;5092196;28;20028;-47
2022/10/23 05:01:25;;;;;;;35.85;17.70;;;;;;;10.80;100.00;101019.44;5091866;28;20157;-47
2022/10/23 05:03:52;;;;;;;33.00;17.45;;;;;;;10.83;100.00;101028.97;5091913;28;20115;-48
2022/10/23 05:06:18;;;;;;;44.75;17.65;;;;;;;10.83;100.00;101027.28;5092811;28;20016;-48
2022/10/23 05:08:43;;;;;;;36.60;19.10;;;;;;;10.84;100.00;101023.00;5091588;28;20028;-46
2022/10/23 05:11:08;;;;;;;39.75;18.27;;;;;;;10.80;100.00;101018.56;5092048;28;20081;-48
2022/10/23 05:13:34;;;;;;;41.08;18.13;;;;;;;10.79;100.00;101019.41;5093289;28;20112;-46
2022/10/23 05:15:59;;;;;;;37.30;18.00;;;;;;;10.79;100.00;101017.69;5095066;28;20035;-46
2022/10/23 05:18:35;;;;;;;37.83;17.98;;;;;;;10.79;100.00;101017.69;5095809;28;20020;-47
2022/10/23 05:21:09;;;;;;;41.25;17.77;;;;;;;10.81;100.00;101020.34;5095618;28;20475;-47
2022/10/23 05:23:36;;;;;;;42.25;17.70;;;;;;;10.77;100.00;101010.72;5095193;28;20026;-46
2022/10/23 05:26:03;;;;;;;41.08;18.08;;;;;;;10.79;100.00;101015.09;5095569;28;20028;-47
2022/10/23 05:28:28;;;;;;;40.65;19.45;;;;;;;10.78;100.00;101010.78;5095031;28;20032;-46
2022/10/23 05:30:54;;;;;;;39.28;17.65;;;;;;;10.79;100.00;101014.25;5095137;28;20020;-46
2022/10/23 05:33:19;;;;;;;42.40;18.02;;;;;;;10.80;100.00;101003.97;5095774;28;20031;-44
2022/10/23 05:35:45;;;;;;;37.35;17.67;;;;;;;10.80;100.00;101009.13;5094825;28;20403;-47
2022/10/23 05:38:12;;;;;;;33.40;17.50;;;;;;;10.77;100.00;101003.00;5095360;28;20497;-47
2022/10/23 05:40:38;;;;;;;37.78;18.17;;;;;;;10.83;100.00;101009.25;5095565;28;20141;-48
2022/10/23 05:43:03;;;;;;;33.22;17.20;;;;;;;10.80;100.00;101001.38;5094457;28;20074;-47
2022/10/23 05:45:28;;;;;;;39.13;17.95;;;;;;;10.84;100.00;100992.06;5095037;28;20031;-48
2022/10/23 05:47:53;;;;;;;37.95;18.67;;;;;;;10.82;100.00;100999.75;5095156;28;20024;-44
2022/10/23 05:50:19;;;;;;;39.90;17.73;;;;;;;10.86;100.00;101003.31;5094703;28;20028;-47
2022/10/23 05:52:46;;;;;;;34.00;17.05;;;;;;;10.76;100.00;100994.41;5094661;28;20016;-47
2022/10/23 05:55:12;;;;;;;32.83;17.48;;;;;;;10.76;100.00;100990.94;5095180;28;20020;-46
2022/10/23 05:57:37;;;;;;;36.72;17.27;;;;;;;10.74;100.00;100990.88;5094427;28;20031;-47
2022/10/23 06:00:04;;;;;;;40.95;17.40;;;;;;;10.75;100.00;100997.78;5094826;28;20024;-47
2022/10/23 06:02:29;;;;;;;34.25;17.02;;;;;;;10.75;100.00;100984.03;5094759;28;20487;-46
2022/10/23 06:04:54;;;;;;;34.78;17.02;;;;;;;10.76;100.00;100984.09;5094105;28;20028;-44
2022/10/23 06:07:27;;;;;;;36.08;17.65;;;;;;;10.78;100.00;100987.59;5094414;28;20032;-45
2022/10/23 06:09:53;;;;;;;38.40;17.85;;;;;;;10.80;100.00;100983.34;5094370;28;20024;-47
2022/10/23 06:12:19;;;;;;;37.90;18.63;;;;;;;10.76;100.00;100976.34;5094330;28;20421;-48
2022/10/23 06:14:45;;;;;;;38.38;17.67;;;;;;;10.83;100.00;100969.66;5094395;28;20391;-47
2022/10/23 06:17:10;;;;;;;34.83;16.67;;;;;;;10.86;100.00;100970.66;5094800;28;20487;-47
2022/10/23 06:19:35;;;;;;;34.58;16.95;;;;;;;10.86;100.00;100968.06;5093894;28;20027;-47
2022/10/23 06:22:00;;;;;;;32.38;16.10;;;;;;;10.86;100.00;100972.38;5094289;28;20017;-47
2022/10/23 06:24:26;;;;;;;31.98;16.55;;;;;;;10.83;100.00;100967.97;5094189;28;20383;-45
2022/10/23 06:26:51;;;;;;;40.80;17.02;;;;;;;10.93;100.00;100973.41;5093328;28;20031;-46
2022/10/23 06:29:16;;;;;;;39.67;16.25;;;;;;;10.93;100.00;100965.69;5094577;28;20031;-46
2022/10/23 06:31:42;;;;;;;34.53;15.88;;;;;;;10.95;100.00;100966.59;5094025;28;20028;-45
2022/10/23 06:34:10;;;;;;;36.78;15.13;;;;;;;11.00;100.00;100970.16;5094053;28;20375;-46
2022/10/23 06:36:36;;;;;;;30.80;15.43;;;;;;;11.01;100.00;100962.50;5094420;28;20032;-46
2022/10/23 06:39:02;;;;;;;39.92;16.10;;;;;;;11.03;100.00;100959.97;5093393;28;20028;-47
2022/10/23 06:41:28;;;;;;;31.27;15.65;;;;;;;11.04;100.00;100951.41;5093917;28;20057;-47
2022/10/23 06:43:53;;;;;;;33.67;15.57;;;;;;;11.06;100.00;100948.88;5093847;28;20180;-48
2022/10/23 06:46:19;;;;;;;40.72;15.43;;;;;;;11.09;100.00;100944.69;5093749;28;20064;-48
2022/10/23 06:48:44;;;;;;;32.28;15.23;;;;;;;11.12;100.00;100941.31;5093510;28;20103;-47
2022/10/23 06:51:11;;;;;;;35.42;15.95;;;;;;;11.10;100.00;100936.09;5093976;28;20050;-48
2022/10/23 06:53:37;;;;;;;35.22;16.15;;;;;;;11.17;100.00;100938.03;5093339;28;20379;-48
2022/10/23 06:56:04;;;;;;;30.40;14.93;;;;;;;11.23;100.00;100939.03;5093457;28;20024;-47
2022/10/23 06:58:30;;;;;;;38.75;16.15;;;;;;;11.25;100.00;100930.50;5093912;28;20118;-48
2022/10/23 07:00:59;;;;;;;31.13;14.52;;;;;;;11.27;100.00;100931.44;5093122;28;20107;-47
2022/10/23 07:03:24;;;;;;;34.10;15.13;;;;;;;11.31;100.00;100940.09;5093701;28;20028;-47
2022/10/23 07:05:50;;;;;;;37.28;15.93;;;;;;;11.35;100.00;100931.66;5093494;28;20102;-48
2022/10/23 07:08:15;;;;;;;34.30;15.13;;;;;;;11.38;100.00;100942.03;5092978;28;20480;-46
2022/10/23 07:10:44;;;;;;;33.80;15.60;;;;;;;11.41;100.00;100942.09;5093373;28;20027;-47
2022/10/23 07:13:10;;;;;;;31.77;15.80;;;;;;;11.47;100.00;100942.28;5093778;28;20016;-48
2022/10/23 07:15:36;;;;;;;36.58;15.32;;;;;;;11.51;100.00;100935.50;5092806;28;20107;-47
2022/10/23 07:18:02;;;;;;;37.03;15.70;;;;;;;11.53;100.00;100926.97;5093174;28;20111;-47
2022/10/23 07:20:27;;;;;;;37.30;15.82;;;;;;;11.59;100.00;100933.13;5093498;28;20052;-47
2022/10/23 07:22:54;;;;;;;33.03;15.45;;;;;;;11.60;100.00;100928.00;5092382;28;20028;-46
2022/10/23 07:25:21;;;;;;;31.13;15.50;;;;;;;11.64;100.00;100928.97;5093674;28;20020;-44
2022/10/23 07:27:47;;;;;;;28.80;15.65;;;;;;;11.66;100.00;100916.97;5093282;28;20101;-47
2022/10/23 07:30:13;;;;;;;32.35;15.98;;;;;;;11.68;100.00;100921.34;5092693;28;20024;-47
2022/10/23 07:32:38;;;;;;;37.28;15.95;;;;;;;11.74;100.00;100920.63;5093467;28;20031;-46
2022/10/23 07:35:04;;;;;;;41.70;17.77;;;;;;;11.76;100.00;100913.81;5092756;28;20024;-46
2022/10/23 07:37:29;;;;;;;35.65;16.77;;;;;;;11.78;100.00;100917.28;5092375;28;20032;-48
2022/10/23 07:39:55;;;;;;;35.22;16.38;;;;;;;11.82;100.00;100908.78;5093176;28;20364;-48
2022/10/23 07:42:20;;;;;;;35.72;16.02;;;;;;;11.83;100.00;100907.94;5092740;28;20077;-46
2022/10/23 07:44:45;;;;;;;35.92;16.50;;;;;;;11.88;100.00;100913.25;5092606;28;20040;-44
2022/10/23 07:47:11;;;;;;;33.88;17.30;;;;;;;11.93;100.00;100911.66;5093084;28;20020;-46
2022/10/23 07:49:36;;;;;;;30.38;15.60;;;;;;;11.94;100.00;100909.94;5092549;28;20024;-46
2022/10/23 07:52:04;;;;;;;35.10;16.92;;;;;;;11.97;100.00;100908.34;5092611;28;20387;-46
2022/10/23 07:54:29;;;;;;;;;;;;;;;12.05;100.00;100894.75;5093740;28;20039;-44
2022/10/23 07:56:54;;;;;;;38.73;16.57;;;;;;;12.06;100.00;100899.94;5092199;28;19912;-46
2022/10/23 07:59:19;;;;;;;34.72;17.60;;;;;;;12.10;100.00;100899.16;5092846;28;20484;-46
2022/10/23 08:01:46;;;;;;;31.45;17.10;;;;;;;12.12;100.00;100897.50;5092716;28;20032;-47
2022/10/23 08:04:11;;;;;;;32.28;16.42;;;;;;;12.14;100.00;100900.13;5092376;28;20521;-46
2022/10/23 08:06:37;;;;;;;31.52;16.55;;;;;;;12.19;100.00;100894.22;5092715;28;20024;-44
2022/10/23 08:09:03;;;;;;;34.28;16.77;;;;;;;12.23;100.00;100890.00;5092481;28;20056;-48
2022/10/23 08:11:34;;;;;;;28.67;15.90;;;;;;;12.30;100.00;100893.59;5092467;28;20056;-46
2022/10/23 08:14:01;;;;;;;32.55;15.82;;;;;;;12.32;100.00;100899.69;5092522;28;20031;-43
2022/10/23 08:16:26;;;;;;;32.00;16.05;;;;;;;12.39;100.00;100888.63;5093020;28;20024;-44
2022/10/23 08:18:52;;;;;;;30.85;15.68;;;;;;;12.46;100.00;100881.88;5091863;28;20396;-45
2022/10/23 08:21:17;;;;;;;29.98;15.15;;;;;;;12.50;100.00;100894.06;5092710;28;20042;-47
2022/10/23 08:23:43;;;;;;;28.20;14.90;;;;;;;12.57;100.00;100895.06;5092778;28;20024;-42
2022/10/23 08:26:09;;;;;;;33.30;15.95;;;;;;;12.61;100.00;100894.28;5091961;28;20032;-46
2022/10/23 08:28:35;;;;;;;39.13;16.17;;;;;;;12.64;100.00;100889.19;5092642;28;20475;-46
2022/10/23 08:31:13;;;;;;;30.15;15.63;;;;;;;12.71;100.00;100883.31;5092467;28;20028;-47
2022/10/23 08:33:38;;;;;;;;;;;;;;;12.78;100.00;100884.31;5092436;28;20029;-46
2022/10/23 08:36:04;;;;;;;29.80;13.93;;;;;;;12.82;100.00;100883.53;5092471;28;20033;-47
2022/10/23 08:38:29;;;;;;;26.42;13.93;;;;;;;12.85;100.00;100881.88;5092207;28;20108;-45
2022/10/23 08:40:55;;;;;;;26.27;13.98;;;;;;;12.88;100.00;100875.03;5092245;28;20391;-46
2022/10/23 08:43:32;;;;;;;28.42;12.93;;;;;;;12.89;100.00;100872.47;5092531;28;20418;-47
2022/10/23 08:46:03;;;;;;;27.60;12.40;;;;;;;12.89;100.00;100867.31;5091880;28;20032;-45
2022/10/23 08:48:37;;;;;;;30.15;13.57;;;;;;;12.93;100.00;100860.47;5094710;28;20039;-47
2022/10/23 08:51:21;;;;;;;25.00;12.32;;;;;;;12.94;100.00;100865.69;5096350;28;20032;-47
2022/10/23 08:54:18;;;;;;;32.42;13.18;;;;;;;12.99;100.00;100868.38;5095533;28;20031;-46
2022/10/23 08:56:51;;;;;;;29.70;12.73;;;;;;;13.04;100.00;100860.69;5055098;28;20491;-43
2022/10/23 08:59:21;;;;;;;24.55;12.30;;;;;;;13.06;100.00;100857.28;5096482;28;20020;-46
2022/10/23 09:01:59;;;;;;;27.08;12.05;;;;;;;13.14;100.00;100853.16;5095617;28;20055;-44
2022/10/23 09:04:24;;;;;;;29.65;11.88;;;;;;;13.17;100.00;100850.59;5096128;28;20062;-47
2022/10/23 09:07:15;;;;;;;25.02;12.50;;;;;;;13.24;100.00;100854.19;5095318;28;20055;-47
2022/10/23 09:09:55;;;;;;;28.33;12.35;;;;;;;13.31;100.00;100853.47;5095962;28;20032;-45
2022/10/23 09:12:24;;;;;;;34.65;13.02;;;;;;;13.30;100.00;100843.09;5095971;28;20464;-47
2022/10/23 09:15:02;;;;;;;30.75;13.00;;;;;;;13.36;100.00;100840.59;5094887;28;20589;-46
2022/10/23 09:17:28;;;;;;;;;;;;;;;13.45;100.00;100827.84;5096288;28;20101;-47
2022/10/23 09:20:24;;;;;;;27.20;12.50;;;;;;;13.53;100.00;100824.50;5095813;28;19929;-47
2022/10/23 09:23:17;;;;;;;23.30;11.43;;;;;;;13.64;100.00;100830.75;5084451;28;20565;-47
2022/10/23 09:25:44;;;;;;;24.65;10.80;;;;;;;13.67;100.00;100820.44;5095420;28;20391;-44
2022/10/23 09:28:22;;;;;;;26.07;11.30;;;;;;;13.79;100.00;100818.06;5095305;28;20043;-48
2022/10/23 09:30:47;;;;;;;;;;;;;;;13.88;100.00;100821.63;5095767;28;20270;-44
2022/10/23 09:33:14;;;;;;;24.13;10.45;;;;;;;13.87;100.00;100814.72;5095701;28;20375;-45
2022/10/23 09:35:52;;;;;;;22.95;10.60;;;;;;;13.93;100.00;100817.38;5094891;28;20487;-46
2022/10/23 09:38:32;;;;;;;22.58;10.57;;;;;;;13.96;100.00;100814.84;5095570;28;20024;-44
2022/10/23 09:41:13;;;;;;;22.33;9.75;;;;;;;13.99;100.00;100799.34;5095359;28;20028;-44
2022/10/23 09:43:38;;;;;;;19.85;10.07;;;;;;;14.02;100.00;100804.59;5094436;28;20487;-43
2022/10/23 09:46:05;;;;;;;16.98;10.40;;;;;;;14.14;100.00;100785.75;5094920;28;20084;-44
2022/10/23 09:48:32;;;;;;;22.85;10.95;;;;;;;14.12;100.00;100790.03;5095192;28;20078;-44
2022/10/23 09:51:00;;;;;;;20.95;10.38;;;;;;;14.19;100.00;100786.69;5094142;28;20092;-45
2022/10/23 09:53:46;;;;;;;26.55;10.35;;;;;;;14.22;100.00;100785.84;5095322;28;20067;-47
2022/10/23 09:56:40;;;;;;;21.55;9.50;;;;;;;14.30;100.00;100784.22;5094593;28;20468;-47
2022/10/23 09:59:20;;;;;;;19.80;9.95;;;;;;;14.29;100.00;100782.47;5093972;28;20487;-48
2022/10/23 10:01:52;;;;;;;22.27;10.73;;;;;;;14.29;100.00;100780.78;5095133;28;20024;-46
2022/10/23 10:04:18;;;;;;;22.08;10.18;;;;;;;14.35;100.00;100771.34;5094432;28;20028;-47
2022/10/23 10:06:43;;;;;;;26.80;11.10;;;;;;;14.40;100.00;100759.31;5094769;28;20024;-46
2022/10/23 10:09:13;;;;;;;22.10;10.85;;;;;;;14.43;100.00;100757.59;5094882;28;20024;-47
2022/10/23 10:11:47;;;;;;;24.35;10.68;;;;;;;14.44;100.00;100754.16;5093979;28;20061;-46
2022/10/23 10:14:49;;;;;;;21.23;10.80;;;;;;;14.51;100.00;100751.63;5095364;28;20020;-45
2022/10/23 10:17:27;;;;;;;20.10;11.13;;;;;;;14.46;100.00;100749.88;5094322;28;20034;-48
2022/10/23 10:20:05;;;;;;;23.42;10.85;;;;;;;14.49;100.00;100739.50;5094291;28;20036;-48
2022/10/23 10:22:51;;;;;;;20.73;10.50;;;;;;;14.54;100.00;100736.09;5094693;28;20379;-47
2022/10/23 10:25:28;;;;;;;25.30;9.95;;;;;;;14.57;100.00;100720.59;5093842;28;20501;-46
2022/10/23 10:28:29;;;;;;;23.17;11.23;;;;;;;14.61;100.00;100724.97;5094153;28;20345;-49
2022/10/23 10:31:18;;;;;;;19.92;10.70;;;;;;;14.65;100.00;100724.16;5093855;28;20020;-47
2022/10/23 10:34:13;;;;;;;27.67;12.98;;;;;;;14.71;100.00;100729.44;5094050;28;20020;-47
2022/10/23 10:36:53;;;;;;;22.00;10.85;;;;;;;14.70;100.00;100725.09;5094288;28;20020;-48
2022/10/23 10:39:59;;;;;;;19.40;11.02;;;;;;;14.81;100.00;100725.22;5093728;28;20042;-47
2022/10/23 10:43:01;;;;;;;23.08;11.20;;;;;;;14.83;100.00;100718.28;4992644;28;20109;-47
2022/10/23 10:46:02;;;;;;;25.58;10.48;;;;;;;14.91;100.00;100723.56;5053664;28;20033;-46
2022/10/23 10:48:48;;;;;;;18.38;9.98;;;;;;;15.10;100.00;100722.88;5053520;28;20041;-47
2022/10/23 10:51:44;;;;;;;21.92;10.38;;;;;;;15.22;100.00;100710.84;5053880;28;20056;-47
2022/10/23 10:54:40;;;;;;;39.40;10.23;;;;;;;15.36;100.00;100703.19;5043896;28;20045;-48
2022/10/23 10:57:15;;;;;;;25.77;10.95;;;;;;;15.54;100.00;100697.25;5053679;28;20025;-45
2022/10/23 10:59:46;;;;;;;19.98;9.48;;;;;;;15.67;100.00;100693.00;5053174;28;20021;-47
2022/10/23 11:02:27;;;;;;;21.83;9.85;;;;;;;15.92;99.38;100687.13;5053657;28;20078;-47
2022/10/23 11:05:11;;;;;;;22.73;9.65;;;;;;;16.04;98.31;100681.09;5053488;28;20472;-49
2022/10/23 11:07:41;;;;;;;25.20;10.18;;;;;;;16.23;95.71;100678.56;5052762;28;20036;-47
2022/10/23 11:10:16;;;;;;;20.55;9.25;;;;;;;16.37;95.47;100676.91;5053203;28;20087;-46
2022/10/23 11:12:46;;;;;;;19.30;9.70;;;;;;;16.35;94.50;100688.16;5052762;28;20465;-47
2022/10/23 11:15:19;;;;;;;19.60;10.18;;;;;;;16.47;94.69;100680.38;5052902;28;20029;-47
2022/10/23 11:17:53;;;;;;;20.73;8.80;;;;;;;16.42;93.47;100675.19;5053013;28;20495;-46